sensor_id;sensor_type;location;lat;lon;timestamp;P1;durP1;ratioP1;P2;durP2;ratioP2
18695;SDS011;22617;43.690;27.956;2023-12-28T00:05:02;11.57;;;7.10;;
18695;SDS011;22617;43.690;27.956;2023-12-28T00:10:06;10.67;;;6.30;;
18695;SDS011;22617;43.690;27.956;2023-12-28T00:15:11;9.87;;;6.10;;
18695;SDS011;22617;43.690;27.956;2023-12-28T00:20:15;10.40;;;6.63;;
18695;SDS011;22617;43.690;27.956;2023-12-28T00:25:18;10.00;;;6.17;;
18695;SDS011;22617;43.690;27.956;2023-12-28T00:30:23;11.60;;;7.00;;
18695;SDS011;22617;43.690;27.956;2023-12-28T00:35:27;12.40;;;7.67;;
18695;SDS011;22617;43.690;27.956;2023-12-28T00:40:31;12.00;;;7.27;;
18695;SDS011;22617;43.690;27.956;2023-12-28T00:45:35;12.60;;;7.03;;
18695;SDS011;22617;43.690;27.956;2023-12-28T00:50:39;14.63;;;8.73;;
18695;SDS011;22617;43.690;27.956;2023-12-28T00:55:42;14.00;;;8.07;;
18695;SDS011;22617;43.690;27.956;2023-12-28T01:00:47;14.60;;;8.30;;
18695;SDS011;22617;43.690;27.956;2023-12-28T01:05:51;13.93;;;8.20;;
18695;SDS011;22617;43.690;27.956;2023-12-28T01:10:54;15.37;;;8.83;;
18695;SDS011;22617;43.690;27.956;2023-12-28T01:15:59;15.70;;;9.97;;
18695;SDS011;22617;43.690;27.956;2023-12-28T01:21:03;13.47;;;8.03;;
18695;SDS011;22617;43.690;27.956;2023-12-28T01:26:11;20.50;;;9.80;;
18695;SDS011;22617;43.690;27.956;2023-12-28T01:31:17;18.53;;;8.63;;
18695;SDS011;22617;43.690;27.956;2023-12-28T01:36:21;14.20;;;8.30;;
18695;SDS011;22617;43.690;27.956;2023-12-28T01:41:25;15.10;;;9.00;;
18695;SDS011;22617;43.690;27.956;2023-12-28T01:46:30;14.57;;;8.27;;
18695;SDS011;22617;43.690;27.956;2023-12-28T01:51:34;17.27;;;8.70;;
18695;SDS011;22617;43.690;27.956;2023-12-28T01:56:38;14.60;;;8.07;;
18695;SDS011;22617;43.690;27.956;2023-12-28T02:01:44;11.67;;;8.03;;
18695;SDS011;22617;43.690;27.956;2023-12-28T02:06:48;14.80;;;8.70;;
18695;SDS011;22617;43.690;27.956;2023-12-28T02:11:51;12.10;;;7.60;;
18695;SDS011;22617;43.690;27.956;2023-12-28T02:16:59;14.50;;;8.30;;
18695;SDS011;22617;43.690;27.956;2023-12-28T02:22:07;13.00;;;7.67;;
18695;SDS011;22617;43.690;27.956;2023-12-28T02:27:13;14.27;;;8.60;;
18695;SDS011;22617;43.690;27.956;2023-12-28T02:32:16;12.47;;;8.37;;
18695;SDS011;22617;43.690;27.956;2023-12-28T02:37:26;12.97;;;7.60;;
18695;SDS011;22617;43.690;27.956;2023-12-28T02:42:34;14.63;;;9.43;;
18695;SDS011;22617;43.690;27.956;2023-12-28T02:47:38;16.37;;;8.63;;
18695;SDS011;22617;43.690;27.956;2023-12-28T02:52:41;13.60;;;8.60;;
18695;SDS011;22617;43.690;27.956;2023-12-28T02:57:46;14.27;;;8.27;;
18695;SDS011;22617;43.690;27.956;2023-12-28T03:02:50;13.93;;;8.53;;
18695;SDS011;22617;43.690;27.956;2023-12-28T03:07:53;12.67;;;7.43;;
18695;SDS011;22617;43.690;27.956;2023-12-28T03:12:59;17.10;;;10.03;;
18695;SDS011;22617;43.690;27.956;2023-12-28T03:18:03;15.23;;;9.13;;
18695;SDS011;22617;43.690;27.956;2023-12-28T03:23:07;15.30;;;8.70;;
18695;SDS011;22617;43.690;27.956;2023-12-28T03:28:13;15.53;;;8.67;;
18695;SDS011;22617;43.690;27.956;2023-12-28T03:33:17;18.63;;;9.97;;
18695;SDS011;22617;43.690;27.956;2023-12-28T03:38:21;19.80;;;9.83;;
18695;SDS011;22617;43.690;27.956;2023-12-28T03:43:26;19.00;;;8.43;;
18695;SDS011;22617;43.690;27.956;2023-12-28T03:48:29;16.57;;;8.73;;
18695;SDS011;22617;43.690;27.956;2023-12-28T03:53:33;17.00;;;8.50;;
18695;SDS011;22617;43.690;27.956;2023-12-28T03:58:39;14.70;;;7.73;;
18695;SDS011;22617;43.690;27.956;2023-12-28T04:03:42;11.07;;;6.77;;
18695;SDS011;22617;43.690;27.956;2023-12-28T04:08:46;16.10;;;8.67;;
18695;SDS011;22617;43.690;27.956;2023-12-28T04:13:51;16.10;;;8.10;;
18695;SDS011;22617;43.690;27.956;2023-12-28T04:18:54;20.17;;;8.93;;
18695;SDS011;22617;43.690;27.956;2023-12-28T04:23:58;16.20;;;8.10;;
18695;SDS011;22617;43.690;27.956;2023-12-28T04:29:03;22.73;;;9.43;;
18695;SDS011;22617;43.690;27.956;2023-12-28T04:34:06;24.30;;;9.07;;
18695;SDS011;22617;43.690;27.956;2023-12-28T04:39:11;23.23;;;9.37;;
18695;SDS011;22617;43.690;27.956;2023-12-28T04:44:17;26.50;;;10.40;;
18695;SDS011;22617;43.690;27.956;2023-12-28T04:49:20;23.70;;;10.17;;
18695;SDS011;22617;43.690;27.956;2023-12-28T04:54:24;24.90;;;10.07;;
18695;SDS011;22617;43.690;27.956;2023-12-28T04:59:29;18.70;;;8.40;;
18695;SDS011;22617;43.690;27.956;2023-12-28T05:04:32;22.10;;;9.10;;
18695;SDS011;22617;43.690;27.956;2023-12-28T05:09:36;21.40;;;9.87;;
18695;SDS011;22617;43.690;27.956;2023-12-28T05:14:42;19.90;;;9.73;;
18695;SDS011;22617;43.690;27.956;2023-12-28T05:19:45;21.73;;;10.33;;
18695;SDS011;22617;43.690;27.956;2023-12-28T05:24:49;20.87;;;10.37;;
18695;SDS011;22617;43.690;27.956;2023-12-28T05:29:54;22.20;;;10.77;;
18695;SDS011;22617;43.690;27.956;2023-12-28T05:34:58;23.40;;;11.13;;
18695;SDS011;22617;43.690;27.956;2023-12-28T05:40:01;25.67;;;13.80;;
18695;SDS011;22617;43.690;27.956;2023-12-28T05:45:07;30.57;;;13.20;;
18695;SDS011;22617;43.690;27.956;2023-12-28T05:50:11;31.13;;;13.17;;
18695;SDS011;22617;43.690;27.956;2023-12-28T05:55:15;28.83;;;12.60;;
18695;SDS011;22617;43.690;27.956;2023-12-28T06:00:20;24.07;;;11.60;;
18695;SDS011;22617;43.690;27.956;2023-12-28T06:05:24;31.53;;;12.93;;
18695;SDS011;22617;43.690;27.956;2023-12-28T06:10:27;26.80;;;11.47;;
18695;SDS011;22617;43.690;27.956;2023-12-28T06:15:32;29.07;;;12.37;;
18695;SDS011;22617;43.690;27.956;2023-12-28T06:20:36;26.27;;;12.07;;
18695;SDS011;22617;43.690;27.956;2023-12-28T06:25:39;20.07;;;10.33;;
18695;SDS011;22617;43.690;27.956;2023-12-28T06:30:44;23.57;;;10.83;;
18695;SDS011;22617;43.690;27.956;2023-12-28T06:35:48;19.70;;;10.63;;
18695;SDS011;22617;43.690;27.956;2023-12-28T06:40:51;22.43;;;10.83;;
18695;SDS011;22617;43.690;27.956;2023-12-28T06:45:56;22.30;;;11.60;;
18695;SDS011;22617;43.690;27.956;2023-12-28T06:51:00;27.47;;;11.03;;
18695;SDS011;22617;43.690;27.956;2023-12-28T06:56:04;16.53;;;9.57;;
18695;SDS011;22617;43.690;27.956;2023-12-28T07:01:09;17.93;;;9.80;;
18695;SDS011;22617;43.690;27.956;2023-12-28T07:06:14;22.10;;;10.53;;
18695;SDS011;22617;43.690;27.956;2023-12-28T07:11:17;20.37;;;10.37;;
18695;SDS011;22617;43.690;27.956;2023-12-28T07:16:22;23.47;;;11.13;;
18695;SDS011;22617;43.690;27.956;2023-12-28T07:21:26;18.47;;;9.90;;
18695;SDS011;22617;43.690;27.956;2023-12-28T07:26:29;20.73;;;9.23;;
18695;SDS011;22617;43.690;27.956;2023-12-28T07:31:34;22.67;;;10.30;;
18695;SDS011;22617;43.690;27.956;2023-12-28T07:36:39;17.70;;;9.23;;
18695;SDS011;22617;43.690;27.956;2023-12-28T07:41:45;18.40;;;9.50;;
18695;SDS011;22617;43.690;27.956;2023-12-28T07:46:50;21.20;;;10.60;;
18695;SDS011;22617;43.690;27.956;2023-12-28T07:51:54;17.83;;;9.03;;
18695;SDS011;22617;43.690;27.956;2023-12-28T07:56:57;17.17;;;8.57;;
18695;SDS011;22617;43.690;27.956;2023-12-28T08:02:03;13.23;;;7.57;;
18695;SDS011;22617;43.690;27.956;2023-12-28T08:07:07;15.47;;;7.23;;
18695;SDS011;22617;43.690;27.956;2023-12-28T08:12:10;17.43;;;8.00;;
18695;SDS011;22617;43.690;27.956;2023-12-28T08:17:15;14.37;;;7.57;;
18695;SDS011;22617;43.690;27.956;2023-12-28T08:22:19;15.83;;;7.97;;
18695;SDS011;22617;43.690;27.956;2023-12-28T08:27:22;11.80;;;7.40;;
18695;SDS011;22617;43.690;27.956;2023-12-28T08:32:27;14.80;;;7.07;;
18695;SDS011;22617;43.690;27.956;2023-12-28T08:37:30;15.73;;;7.50;;
18695;SDS011;22617;43.690;27.956;2023-12-28T08:42:34;14.80;;;7.73;;
18695;SDS011;22617;43.690;27.956;2023-12-28T08:47:39;9.93;;;6.20;;
18695;SDS011;22617;43.690;27.956;2023-12-28T08:52:42;12.87;;;6.37;;
18695;SDS011;22617;43.690;27.956;2023-12-28T08:57:46;14.80;;;6.13;;
18695;SDS011;22617;43.690;27.956;2023-12-28T09:02:51;10.10;;;5.00;;
18695;SDS011;22617;43.690;27.956;2023-12-28T09:07:54;11.53;;;4.80;;
18695;SDS011;22617;43.690;27.956;2023-12-28T09:12:58;9.20;;;4.50;;
18695;SDS011;22617;43.690;27.956;2023-12-28T09:18:03;12.13;;;5.30;;
18695;SDS011;22617;43.690;27.956;2023-12-28T09:23:07;10.87;;;4.90;;
18695;SDS011;22617;43.690;27.956;2023-12-28T09:28:11;7.17;;;4.47;;
18695;SDS011;22617;43.690;27.956;2023-12-28T09:33:17;6.47;;;4.20;;
18695;SDS011;22617;43.690;27.956;2023-12-28T09:38:21;8.90;;;5.37;;
18695;SDS011;22617;43.690;27.956;2023-12-28T09:43:25;6.67;;;4.13;;
18695;SDS011;22617;43.690;27.956;2023-12-28T09:48:37;7.50;;;4.00;;
18695;SDS011;22617;43.690;27.956;2023-12-28T09:53:41;8.97;;;4.33;;
18695;SDS011;22617;43.690;27.956;2023-12-28T09:58:46;7.67;;;3.80;;
18695;SDS011;22617;43.690;27.956;2023-12-28T10:03:54;7.03;;;4.03;;
18695;SDS011;22617;43.690;27.956;2023-12-28T10:08:58;5.53;;;3.50;;
18695;SDS011;22617;43.690;27.956;2023-12-28T10:14:03;7.23;;;3.20;;
18695;SDS011;22617;43.690;27.956;2023-12-28T10:19:10;4.63;;;2.87;;
18695;SDS011;22617;43.690;27.956;2023-12-28T10:24:14;7.53;;;2.63;;
18695;SDS011;22617;43.690;27.956;2023-12-28T10:29:18;4.87;;;2.63;;
18695;SDS011;22617;43.690;27.956;2023-12-28T10:34:23;5.60;;;2.87;;
18695;SDS011;22617;43.690;27.956;2023-12-28T10:39:29;5.23;;;2.50;;
18695;SDS011;22617;43.690;27.956;2023-12-28T10:44:35;9.27;;;3.30;;
18695;SDS011;22617;43.690;27.956;2023-12-28T10:49:47;4.03;;;2.60;;
18695;SDS011;22617;43.690;27.956;2023-12-28T10:54:54;33.63;;;13.77;;
18695;SDS011;22617;43.690;27.956;2023-12-28T11:00:09;54.80;;;25.10;;
18695;SDS011;22617;43.690;27.956;2023-12-28T11:05:17;24.20;;;12.97;;
18695;SDS011;22617;43.690;27.956;2023-12-28T11:10:23;17.57;;;6.47;;
18695;SDS011;22617;43.690;27.956;2023-12-28T11:15:28;73.30;;;26.23;;
18695;SDS011;22617;43.690;27.956;2023-12-28T11:20:35;24.60;;;8.27;;
18695;SDS011;22617;43.690;27.956;2023-12-28T11:25:39;10.60;;;3.57;;
18695;SDS011;22617;43.690;27.956;2023-12-28T11:30:43;10.00;;;4.40;;
18695;SDS011;22617;43.690;27.956;2023-12-28T11:35:48;8.13;;;3.73;;
18695;SDS011;22617;43.690;27.956;2023-12-28T11:40:51;25.43;;;8.30;;
18695;SDS011;22617;43.690;27.956;2023-12-28T11:45:57;5.40;;;2.47;;
18695;SDS011;22617;43.690;27.956;2023-12-28T11:51:03;4.47;;;2.10;;
18695;SDS011;22617;43.690;27.956;2023-12-28T11:56:06;13.17;;;5.37;;
18695;SDS011;22617;43.690;27.956;2023-12-28T12:01:11;3.00;;;1.93;;
18695;SDS011;22617;43.690;27.956;2023-12-28T12:06:16;10.77;;;3.80;;
18695;SDS011;22617;43.690;27.956;2023-12-28T12:11:20;5.20;;;2.67;;
18695;SDS011;22617;43.690;27.956;2023-12-28T12:16:24;5.83;;;2.47;;
18695;SDS011;22617;43.690;27.956;2023-12-28T12:21:28;5.97;;;2.47;;
18695;SDS011;22617;43.690;27.956;2023-12-28T12:26:32;5.43;;;2.37;;
18695;SDS011;22617;43.690;27.956;2023-12-28T12:31:38;9.63;;;2.37;;
18695;SDS011;22617;43.690;27.956;2023-12-28T12:36:45;10.83;;;2.43;;
18695;SDS011;22617;43.690;27.956;2023-12-28T12:41:48;6.50;;;2.63;;
18695;SDS011;22617;43.690;27.956;2023-12-28T12:46:58;5.20;;;2.47;;
18695;SDS011;22617;43.690;27.956;2023-12-28T12:52:04;5.67;;;3.00;;
18695;SDS011;22617;43.690;27.956;2023-12-28T12:57:10;5.17;;;2.90;;
18695;SDS011;22617;43.690;27.956;2023-12-28T13:02:13;5.50;;;2.60;;
18695;SDS011;22617;43.690;27.956;2023-12-28T13:07:19;5.93;;;2.80;;
18695;SDS011;22617;43.690;27.956;2023-12-28T13:12:23;6.00;;;3.20;;
18695;SDS011;22617;43.690;27.956;2023-12-28T13:17:27;6.17;;;3.00;;
18695;SDS011;22617;43.690;27.956;2023-12-28T13:22:31;8.00;;;3.40;;
18695;SDS011;22617;43.690;27.956;2023-12-28T13:27:36;7.77;;;3.00;;
18695;SDS011;22617;43.690;27.956;2023-12-28T13:32:39;6.27;;;3.30;;
18695;SDS011;22617;43.690;27.956;2023-12-28T13:37:44;5.73;;;3.17;;
18695;SDS011;22617;43.690;27.956;2023-12-28T13:42:48;6.03;;;3.13;;
18695;SDS011;22617;43.690;27.956;2023-12-28T13:47:52;4.73;;;3.23;;
18695;SDS011;22617;43.690;27.956;2023-12-28T13:52:57;7.47;;;3.43;;
18695;SDS011;22617;43.690;27.956;2023-12-28T13:58:01;5.27;;;2.80;;
18695;SDS011;22617;43.690;27.956;2023-12-28T14:03:06;4.77;;;2.53;;
18695;SDS011;22617;43.690;27.956;2023-12-28T14:08:11;4.53;;;2.60;;
18695;SDS011;22617;43.690;27.956;2023-12-28T14:13:14;9.10;;;2.43;;
18695;SDS011;22617;43.690;27.956;2023-12-28T14:18:18;4.93;;;2.40;;
18695;SDS011;22617;43.690;27.956;2023-12-28T14:23:23;4.93;;;2.23;;
18695;SDS011;22617;43.690;27.956;2023-12-28T14:28:27;4.13;;;2.33;;
18695;SDS011;22617;43.690;27.956;2023-12-28T14:33:33;5.90;;;2.70;;
18695;SDS011;22617;43.690;27.956;2023-12-28T14:38:39;6.20;;;2.50;;
18695;SDS011;22617;43.690;27.956;2023-12-28T14:43:42;11.43;;;3.30;;
18695;SDS011;22617;43.690;27.956;2023-12-28T14:48:46;6.60;;;2.70;;
18695;SDS011;22617;43.690;27.956;2023-12-28T14:53:51;6.67;;;3.53;;
18695;SDS011;22617;43.690;27.956;2023-12-28T14:58:55;6.57;;;3.30;;
18695;SDS011;22617;43.690;27.956;2023-12-28T15:03:58;6.23;;;3.63;;
18695;SDS011;22617;43.690;27.956;2023-12-28T15:09:03;9.70;;;2.90;;
18695;SDS011;22617;43.690;27.956;2023-12-28T15:14:07;7.07;;;3.33;;
18695;SDS011;22617;43.690;27.956;2023-12-28T15:19:11;4.33;;;2.83;;
18695;SDS011;22617;43.690;27.956;2023-12-28T15:24:17;7.40;;;3.40;;
18695;SDS011;22617;43.690;27.956;2023-12-28T15:29:23;6.73;;;3.40;;
18695;SDS011;22617;43.690;27.956;2023-12-28T15:34:26;5.47;;;3.57;;
18695;SDS011;22617;43.690;27.956;2023-12-28T15:39:31;7.93;;;4.40;;
18695;SDS011;22617;43.690;27.956;2023-12-28T15:44:35;5.40;;;3.47;;
18695;SDS011;22617;43.690;27.956;2023-12-28T15:49:38;9.33;;;3.67;;
18695;SDS011;22617;43.690;27.956;2023-12-28T15:54:43;7.77;;;4.73;;
18695;SDS011;22617;43.690;27.956;2023-12-28T15:59:47;8.97;;;4.30;;
18695;SDS011;22617;43.690;27.956;2023-12-28T16:04:50;19.17;;;8.13;;
18695;SDS011;22617;43.690;27.956;2023-12-28T16:09:55;12.60;;;5.93;;
18695;SDS011;22617;43.690;27.956;2023-12-28T16:14:59;12.47;;;6.93;;
18695;SDS011;22617;43.690;27.956;2023-12-28T16:20:05;10.57;;;6.33;;
18695;SDS011;22617;43.690;27.956;2023-12-28T16:25:11;13.57;;;6.73;;
18695;SDS011;22617;43.690;27.956;2023-12-28T16:30:15;9.47;;;7.07;;
18695;SDS011;22617;43.690;27.956;2023-12-28T16:35:18;10.93;;;6.20;;
18695;SDS011;22617;43.690;27.956;2023-12-28T16:40:23;16.33;;;9.13;;
18695;SDS011;22617;43.690;27.956;2023-12-28T16:45:27;17.13;;;9.13;;
18695;SDS011;22617;43.690;27.956;2023-12-28T16:50:30;13.10;;;6.90;;
18695;SDS011;22617;43.690;27.956;2023-12-28T16:55:36;10.87;;;6.43;;
18695;SDS011;22617;43.690;27.956;2023-12-28T17:00:40;13.67;;;6.77;;
18695;SDS011;22617;43.690;27.956;2023-12-28T17:05:43;12.70;;;6.57;;
18695;SDS011;22617;43.690;27.956;2023-12-28T17:10:49;13.77;;;7.47;;
18695;SDS011;22617;43.690;27.956;2023-12-28T17:15:53;12.87;;;7.00;;
18695;SDS011;22617;43.690;27.956;2023-12-28T17:20:57;14.87;;;7.70;;
18695;SDS011;22617;43.690;27.956;2023-12-28T17:26:03;14.23;;;7.33;;
18695;SDS011;22617;43.690;27.956;2023-12-28T17:31:09;19.80;;;7.83;;
18695;SDS011;22617;43.690;27.956;2023-12-28T17:36:18;13.83;;;7.27;;
18695;SDS011;22617;43.690;27.956;2023-12-28T17:41:24;11.63;;;6.43;;
18695;SDS011;22617;43.690;27.956;2023-12-28T17:46:34;13.97;;;6.97;;
18695;SDS011;22617;43.690;27.956;2023-12-28T17:51:44;11.33;;;6.57;;
18695;SDS011;22617;43.690;27.956;2023-12-28T17:56:52;12.77;;;7.47;;
18695;SDS011;22617;43.690;27.956;2023-12-28T18:01:56;14.83;;;8.13;;
18695;SDS011;22617;43.690;27.956;2023-12-28T18:07:01;12.20;;;6.90;;
18695;SDS011;22617;43.690;27.956;2023-12-28T18:12:07;17.23;;;7.90;;
18695;SDS011;22617;43.690;27.956;2023-12-28T18:17:11;17.87;;;8.00;;
18695;SDS011;22617;43.690;27.956;2023-12-28T18:22:15;15.90;;;8.10;;
18695;SDS011;22617;43.690;27.956;2023-12-28T18:27:19;13.87;;;8.03;;
18695;SDS011;22617;43.690;27.956;2023-12-28T18:32:23;17.53;;;8.37;;
18695;SDS011;22617;43.690;27.956;2023-12-28T18:37:27;19.40;;;8.93;;
18695;SDS011;22617;43.690;27.956;2023-12-28T18:42:32;15.17;;;8.20;;
18695;SDS011;22617;43.690;27.956;2023-12-28T18:47:35;15.63;;;8.53;;
18695;SDS011;22617;43.690;27.956;2023-12-28T18:52:39;16.20;;;8.33;;
18695;SDS011;22617;43.690;27.956;2023-12-28T18:57:44;12.93;;;7.50;;
18695;SDS011;22617;43.690;27.956;2023-12-28T19:02:52;14.57;;;7.80;;
18695;SDS011;22617;43.690;27.956;2023-12-28T19:07:56;12.60;;;7.23;;
18695;SDS011;22617;43.690;27.956;2023-12-28T19:13:03;14.80;;;6.80;;
18695;SDS011;22617;43.690;27.956;2023-12-28T19:18:10;13.00;;;7.07;;
18695;SDS011;22617;43.690;27.956;2023-12-28T19:23:16;12.60;;;6.53;;
18695;SDS011;22617;43.690;27.956;2023-12-28T19:28:21;15.80;;;6.87;;
18695;SDS011;22617;43.690;27.956;2023-12-28T19:33:24;10.47;;;6.40;;
18695;SDS011;22617;43.690;27.956;2023-12-28T19:38:28;12.23;;;6.43;;
18695;SDS011;22617;43.690;27.956;2023-12-28T19:43:33;15.20;;;7.70;;
18695;SDS011;22617;43.690;27.956;2023-12-28T19:48:36;13.30;;;7.53;;
18695;SDS011;22617;43.690;27.956;2023-12-28T19:53:40;13.60;;;6.93;;
18695;SDS011;22617;43.690;27.956;2023-12-28T19:58:45;14.50;;;7.33;;
18695;SDS011;22617;43.690;27.956;2023-12-28T20:03:48;12.67;;;7.60;;
18695;SDS011;22617;43.690;27.956;2023-12-28T20:08:52;11.83;;;6.90;;
18695;SDS011;22617;43.690;27.956;2023-12-28T20:13:58;13.33;;;7.33;;
18695;SDS011;22617;43.690;27.956;2023-12-28T20:19:02;12.80;;;7.03;;
18695;SDS011;22617;43.690;27.956;2023-12-28T20:24:06;13.57;;;7.77;;
18695;SDS011;22617;43.690;27.956;2023-12-28T20:29:12;19.13;;;9.60;;
18695;SDS011;22617;43.690;27.956;2023-12-28T20:34:16;18.03;;;8.87;;
18695;SDS011;22617;43.690;27.956;2023-12-28T20:39:19;14.23;;;7.97;;
18695;SDS011;22617;43.690;27.956;2023-12-28T20:44:24;13.80;;;8.07;;
18695;SDS011;22617;43.690;27.956;2023-12-28T20:49:27;14.20;;;7.40;;
18695;SDS011;22617;43.690;27.956;2023-12-28T20:54:44;12.57;;;6.70;;
18695;SDS011;22617;43.690;27.956;2023-12-28T20:59:49;12.73;;;6.63;;
18695;SDS011;22617;43.690;27.956;2023-12-28T21:04:53;12.73;;;7.00;;
18695;SDS011;22617;43.690;27.956;2023-12-28T21:09:57;15.87;;;6.50;;
18695;SDS011;22617;43.690;27.956;2023-12-28T21:15:02;11.47;;;6.30;;
18695;SDS011;22617;43.690;27.956;2023-12-28T21:20:08;10.87;;;6.30;;
18695;SDS011;22617;43.690;27.956;2023-12-28T21:25:12;11.07;;;6.43;;
18695;SDS011;22617;43.690;27.956;2023-12-28T21:30:17;11.43;;;6.53;;
18695;SDS011;22617;43.690;27.956;2023-12-28T21:35:21;12.23;;;7.17;;
18695;SDS011;22617;43.690;27.956;2023-12-28T21:40:24;21.00;;;8.40;;
18695;SDS011;22617;43.690;27.956;2023-12-28T21:45:29;18.70;;;8.90;;
18695;SDS011;22617;43.690;27.956;2023-12-28T21:50:33;12.50;;;6.90;;
18695;SDS011;22617;43.690;27.956;2023-12-28T21:55:36;12.63;;;6.67;;
18695;SDS011;22617;43.690;27.956;2023-12-28T22:00:41;14.10;;;6.27;;
18695;SDS011;22617;43.690;27.956;2023-12-28T22:05:44;11.23;;;5.77;;
18695;SDS011;22617;43.690;27.956;2023-12-28T22:10:48;8.47;;;5.40;;
18695;SDS011;22617;43.690;27.956;2023-12-28T22:15:56;9.20;;;5.60;;
18695;SDS011;22617;43.690;27.956;2023-12-28T22:21:01;12.37;;;5.37;;
18695;SDS011;22617;43.690;27.956;2023-12-28T22:26:04;12.27;;;6.03;;
18695;SDS011;22617;43.690;27.956;2023-12-28T22:31:10;11.27;;;5.90;;
18695;SDS011;22617;43.690;27.956;2023-12-28T22:36:13;11.90;;;6.47;;
18695;SDS011;22617;43.690;27.956;2023-12-28T22:41:17;12.33;;;6.47;;
18695;SDS011;22617;43.690;27.956;2023-12-28T22:46:22;10.03;;;5.97;;
18695;SDS011;22617;43.690;27.956;2023-12-28T22:51:25;12.60;;;6.03;;
18695;SDS011;22617;43.690;27.956;2023-12-28T22:56:29;10.30;;;6.13;;
18695;SDS011;22617;43.690;27.956;2023-12-28T23:01:34;13.20;;;6.13;;
18695;SDS011;22617;43.690;27.956;2023-12-28T23:06:37;9.70;;;5.30;;
18695;SDS011;22617;43.690;27.956;2023-12-28T23:11:41;10.57;;;5.73;;
18695;SDS011;22617;43.690;27.956;2023-12-28T23:16:46;12.47;;;5.73;;
18695;SDS011;22617;43.690;27.956;2023-12-28T23:21:49;11.40;;;5.60;;
18695;SDS011;22617;43.690;27.956;2023-12-28T23:26:53;26.93;;;10.43;;
18695;SDS011;22617;43.690;27.956;2023-12-28T23:31:58;28.03;;;11.07;;
18695;SDS011;22617;43.690;27.956;2023-12-28T23:37:02;10.43;;;6.43;;
18695;SDS011;22617;43.690;27.956;2023-12-28T23:42:06;16.37;;;7.70;;
18695;SDS011;22617;43.690;27.956;2023-12-28T23:47:11;12.60;;;6.13;;
18695;SDS011;22617;43.690;27.956;2023-12-28T23:52:15;11.33;;;5.87;;
18695;SDS011;22617;43.690;27.956;2023-12-28T23:57:18;14.47;;;5.93;;
